嘉手納基地の過去48時間の天気

嘉手納基地 (Kadena ab)

現在時刻: 1/26 16:09 JST (1/26 07:09 UTC) 以下の時間は現地時間です。

過去48時間のMETAR気象情報
時間 風向 風速(m/s) 視程 気温(℃) 湿度(%) 気圧(hPa) 天気現象
26 15:56 東南東 5 2800m 22.2 94 1009.4 もや
26 15:46 東南東 6 10km以上 22 94 1009.1
26 15:36 東南東 6 6450m 22 94 1009.1 もや
26 15:06 東南東 6 10km以上 22 94 1009.7
26 14:31 東南東 5 8050m 22 94 1010.1 もや
26 14:21 東南東 6 4450m 22 94 1010.1 もや
26 14:06 7 4000m 22 94 1010.4 弱い霧雨 もや
26 13:56 東南東 7 3600m 21.8 93 1010.4 弱い霧雨 もや
26 13:31 東南東 7 10km以上 22 94 1011.1 弱い雨
26 13:13 東南東 6 4850m 22 94 1011.1 もや
26 13:05 東南東 8 1800m 22 94 1011.4 弱い雨 もや
26 12:59 東南東 8 1800m 22 94 1011.4 弱い雨 もや
26 12:49 東南東 6 1800m 22 94 1011.4 弱い雨 もや
26 12:26 7 3200m 22 94 1012.1 弱い霧雨 もや
26 12:06 8 4450m 22 94 1012.1 弱い雨 もや
26 11:38 9 1800m 22 94 1012.8 弱い雨 もや
26 11:31 7 2000m 22 94 1012.8 弱い雨 もや
26 11:22 8 1800m 22 94 1013.5 弱い雨 もや
26 11:18 7 1800m 22 94 1013.8 弱い雨 もや
26 11:06 6 2800m 22 94 1013.8 弱い雨 もや
26 10:56 7 3600m 21.9 93 1014.1 弱い霧雨 もや
26 10:51 6 4850m 22 88 1014.1 弱い霧雨 もや
26 10:34 6 4450m 23 89 1013.8 霧雨 もや
26 10:24 6 10km以上 23 89 1014.1 弱い霧雨
26 10:06 東南東 6 10km以上 23 89 1014.8
26 09:46 6 10km以上 23 89 1014.5
26 09:26 5 10km以上 23 89 1014.5
26 08:56 6 10km以上 22.4 89 1013.8
26 07:56 3 10km以上 22.1 91 1015.2
26 06:56 東北東 5 10km以上 21.7 92 1014.5
26 06:26 東北東 5 10km以上 22 94 1014.8
26 06:06 4 10km以上 22 94 1014.8
26 05:56 4 10km以上 20.8 95 1015.2
26 05:26 北東 4 10km以上 21 94 1015.2
26 05:16 北東 3 10km以上 21 94 1014.8
26 04:56 東北東 4 10km以上 20.9 96 1014.8
26 03:56 静穏 0 10km以上 20.6 96 1016.1
26 03:26 北東 3 10km以上 21 94 1016.1
26 03:06 北北東 2 10km以上 21 94 1016.8
26 02:56 3 10km以上 21.3 95 1016.8
26 02:26 北東 2 10km以上 21 94 1017.5
26 02:06 2 10km以上 21 94 1017.5
26 01:56 東北東 3 10km以上 21.1 94 1017.5
26 01:16 静穏 0 10km以上 22 94 1017.8
26 01:06 2 10km以上 22 88 1017.8
26 00:56 3 10km以上 21.9 92 1017.8
25 23:56 東南東 3 10km以上 22 91 1018.2
25 22:56 2 10km以上 22.1 90 1018.8
25 22:06 4 10km以上 22 88 1018.5
25 21:56 4 10km以上 22 90 1018.9
25 21:16 3 10km以上 22 88 1019.2
25 21:06 3 10km以上 22 88 1019.2
25 20:56 東南東 2 10km以上 22 88 1019.2
25 20:16 東北東 2 10km以上 22 88 1019.2
25 19:56 3 10km以上 22.2 87 1019.2
25 18:56 5 10km以上 22.3 86 1018.5
25 17:56 7 10km以上 22.6 83 1018.2
25 16:56 東南東 4 10km以上 23.8 78 1017.9
25 15:56 6 10km以上 25 75 1017.9
25 14:56 東南東 5 10km以上 25.8 68 1018.5
25 13:56 東南東 6 10km以上 26 68 1018.9
25 12:56 東南東 6 10km以上 26.3 69 1019.2
25 11:56 7 10km以上 25.9 69 1020.2
25 10:56 6 10km以上 25.2 75 1020.6
25 09:56 5 10km以上 23.6 82 1021.3
25 09:36 4 10km以上 23 83 1021.3
25 09:26 4 10km以上 23 89 1021.3
25 09:16 東北東 4 10km以上 23 89 1021.3
25 08:56 東北東 3 10km以上 22.7 89 1020.9
25 07:56 5 10km以上 21.4 94 1020.3
25 06:56 4 10km以上 21.3 92 1020.3
25 05:56 4 10km以上 21.2 93 1019.9
25 04:56 東北東 3 10km以上 20.9 95 1020.2
25 03:56 北東 3 8050m 19.2 97 1020.6 もや
25 02:56 北東 2 10km以上 19.7 97 1020.9
25 02:22 東北東 3 10km以上 17 94 1021.3 弱い霧雨
25 01:56 北東 2 10km以上 16.4 96 1021.6
25 00:56 静穏 0 10km以上 16.9 94 1022
24 23:56 静穏 0 10km以上 17.8 94 1022.3
24 22:56 静穏 0 10km以上 18.2 91 1022.3
24 21:56 静穏 0 10km以上 19.4 91 1022.6
24 20:56 静穏 0 10km以上 19.4 90 1022.3
24 19:56 北北東 2 10km以上 21 84 1021.7
24 19:46 2 10km以上 21 83 1021.7
24 19:36 3 10km以上 21 83 1021.7
24 19:16 北北西 2 10km以上 22 83 1021.7
24 18:56 2 10km以上 21.7 83 1021.7
24 18:18 北北東 2 10km以上 22 83 1020.7
24 18:16 北北東 2 10km以上 22 83 1020.7
24 17:56 北北東 2 10km以上 22.5 80 1020.6
24 16:56 東南東 3 10km以上 23.8 74 1020.3
24 16:16 2 10km以上 24 74 1020.3
RODN 260656Z AUTO 12010G17KT 1 3/4SM BR OVC005 22/21 A2979 RMK AO2 VIS 1 3/4V7 VIS 7/8 RWY23 CIG 004 RWY23 SLP094 T02220212 $
RODN 260646Z AUTO 12012KT 7SM OVC006 22/21 A2978 RMK AO2 VIS 2 1/4 RWY23 CIG 004 RWY23 SLP091 $
RODN 260636Z 11012KT 4SM BR OVC008 22/21 A2978 RMK AO2A SLP091 $
RODN 260606Z 11011KT 10SM OVC008 22/21 A2980 RMK AO2A CIG 006V008 CIG 007 RWY23 SLP097 $
RODN 260531Z 12010G16KT 5SM BR OVC006 22/21 A2981 RMK AO2A DZE21 SLP101 $
RODN 260521Z 11011G18KT 2 3/4SM BR OVC006 22/21 A2981 RMK AO2A VIS 1 1/2V2 3/4 DZE21 SLP101 $
RODN 260506Z 10014G19KT 2 1/2SM -DZ BR OVC006 22/21 A2982 RMK AO2A VIS 2 1/4V2 3/4 OVC V BKN SLP104 $
RODN 260456Z 11014G19KT 2 1/4SM -DZ BR BKN006 OVC011 22/21 A2982 RMK AO2A VIS 2 1/4V5 RAE06DZB06E11RAB28E37DZB37 CIG 006V009 SLP104 P0001 T02180206 $
RODN 260431Z 12013G20KT 9SM -RA SCT005 OVC009 22/21 A2984 RMK AO2A RAE06DZB06E11RAB28 SLP111 $
RODN 260413Z 12011G22KT 3SM BR BKN005 BKN011 OVC015 22/21 A2984 RMK AO2A RAE06DZB06E11 SLP111 $
RODN 260405Z 11015G24KT 1 1/8SM R05/5500FT -RA BR BKN005 OVC015 22/21 A2985 RMK AO2A SLP114 $
RODN 260359Z 11016G22KT 1 1/8SM R05/5500FT -RA BR BKN005 OVC015 22/21 A2985 RMK AO2A SLP114 $
RODN 260349Z 11011KT 1 1/8SM R05/5000FT -RA BR BKN005 OVC015 22/21 A2985 RMK AO2A RAE06DZB06E28RAB28 SLP114 $
RODN 260326Z 09013G22KT 2SM -DZ BR OVC005 22/21 A2987 RMK AO2A VIS 2V2 1/2 VIS 1 1/2 RWY23 RAE06DZB06 SLP121 $
RODN 260306Z 09015KT 2 3/4SM -RA BR OVC005 22/21 A2987 RMK AO2A VIS 1 5/8V3 VIS 2 RWY23 SLP121 $
RODN 260238Z AUTO 09017G23KT 1 1/8SM R05/6000FT -RA BR BKN005 OVC015 22/21 A2989 RMK AO2 DZE0156RAB0156 SLP128 $
RODN 260231Z AUTO 09014G24KT 1 1/4SM R05/5500FT -RA BR BKN005 OVC015 22/21 A2989 RMK AO2 DZE0156RAB0156 PRESFR SLP128 $
RODN 260222Z AUTO 09015G24KT 1 1/8SM R05/6000FT -RA BR BKN005 OVC015 22/21 A2991 RMK AO2 DZE0156RAB0156 BKN V OVC SLP135 $
RODN 260218Z AUTO 09014G19KT 1 1/8SM R05/5000FT -RA BR BKN005 OVC015 22/21 A2992 RMK AO2 VIS 1V1 1/2 DZE0156RAB0156 BKN V OVC SLP138 $
RODN 260206Z 09011KT 1 3/4SM -RA BR OVC006 22/21 A2992 RMK AO2A VIS 1 5/8V4 DZE0156RAB0156 SLP138 $
RODN 260156Z 09014G21KT 2 1/4SM -DZ BR OVC006 22/21 A2993 RMK AO2A DZB24E34RAB34E45DZB51 OVC V BKN SLP141 P0000 T02190207 $
RODN 260151Z AUTO 10012G21KT 3SM -DZ BR OVC006 22/20 A2993 RMK AO2 DZB24E34RAB34E45DZB51 OVC V BKN SLP141 $
RODN 260134Z AUTO 09011KT 2 3/4SM DZ BR BKN008 OVC017 23/21 A2992 RMK AO2 VIS 2 3/4V9 DZB24E34RAB34 SLP138 $
RODN 260124Z AUTO 09011KT 9SM -DZ BKN008 OVC013 23/21 A2993 RMK AO2 DZB24 CIG 008V010 PRESFR SLP141 $
RODN 260106Z AUTO 11012KT 10SM OVC010 23/21 A2995 RMK AO2 SLP148 $
RODN 260046Z AUTO 10011G18KT 10SM BKN011 BKN019 OVC080 23/21 A2994 RMK AO2 CIG 011V080 CIG 010 RWY23 SLP145 $
RODN 260026Z AUTO 10010KT 10SM SCT010 SCT015 SCT020 OVC080 23/21 A2994 RMK AO2 SLP145 $
RODN 252356Z AUTO 08012KT 10SM BKN010 22/21 A2992 RMK AO2 CIG 010V015 CIG 009 RWY23 SLP138 T02240205 10225 20206 55012 $
RODN 252256Z AUTO 10006KT 10SM FEW010 OVC085 22/21 A2996 RMK AO2 SLP152 T02210205 $
RODN 252156Z AUTO 07009KT 10SM FEW011 FEW019 SCT160 SCT180 22/20 A2994 RMK AO2 SLP145 T02170203 $
RODN 252126Z AUTO 07009KT 10SM SCT010 SCT015 BKN160 22/21 A2995 RMK AO2 SLP148 $
RODN 252106Z AUTO 08008KT 10SM SCT010 BKN015 22/21 A2995 RMK AO2 CIG 011V017 CIG 007 RWY23 SLP148 $
RODN 252056Z AUTO 08007KT 10SM SCT011 SCT018 21/20 A2996 RMK AO2 SLP152 T02080199 55018 $
RODN 252026Z AUTO 05008KT 10SM SCT008 21/20 A2996 RMK AO2 SLP152 $
RODN 252016Z AUTO 05006KT 10SM BKN008 BKN013 21/20 A2995 RMK AO2 CIG 008V016 SLP148 $
RODN 251956Z AUTO 06007KT 10SM FEW009 BKN016 BKN022 21/20 A2995 RMK AO2 CIG 009 RWY23 SLP148 T02090202 $
RODN 251856Z AUTO 00000KT 10SM FEW010 BKN017 BKN021 21/20 A2999 RMK AO2 CIG 014 RWY23 SLP161 T02060199 $
RODN 251826Z AUTO 05006KT 10SM SCT009 BKN015 21/20 A2999 RMK AO2 CIG 009V015 CIG 010 RWY23 SLP161 $
RODN 251806Z AUTO 02004KT 10SM BKN016 21/20 A3001 RMK AO2 CIG 014 RWY23 SLP168 $
RODN 251756Z AUTO 01005KT 10SM BKN014 21/20 A3001 RMK AO2 SLP168 T02130204 10221 20209 57014 $
RODN 251726Z AUTO 05004KT 10SM BKN015 21/20 A3003 RMK AO2 CIG 014 RWY23 SLP175 $
RODN 251706Z AUTO 08004KT 10SM SCT014 21/20 A3003 RMK AO2 SLP175 $
RODN 251656Z AUTO 07005KT 10SM BKN013 21/20 A3003 RMK AO2 SLP175 T02110201 $
RODN 251616Z AUTO 00000KT 10SM BKN012 BKN018 22/21 A3004 RMK AO2 CIG 012V180 SLP178 $
RODN 251606Z AUTO 08004KT 10SM SCT014 BKN180 22/20 A3004 RMK AO2 SLP178 $
RODN 251556Z AUTO 08005KT 10SM BKN014 BKN180 22/21 A3004 RMK AO2 CIG 011 RWY23 SLP178 T02190205 $
RODN 251456Z AUTO 11006KT 10SM FEW014 BKN190 22/20 A3005 RMK AO2 SLP182 T02200204 402630162 55009 $
RODN 251356Z AUTO 09004KT 10SM FEW010 FEW200 22/20 A3007 RMK AO2 SLP188 T02210204 $
RODN 251306Z AUTO 10008KT 10SM SCT010 BKN200 22/20 A3006 RMK AO2 SLP185 $
RODN 251256Z AUTO 09007KT 10SM BKN011 OVC200 22/20 A3007 RMK AO2 SLP189 T02200203 $
RODN 251216Z AUTO 09006KT 10SM BKN012 22/20 A3008 RMK AO2 BKN V SCT SLP192 $
RODN 251206Z AUTO 10006KT 10SM SCT012 22/20 A3008 RMK AO2 SLP192 $
RODN 251156Z AUTO 11003KT 10SM BKN012 22/20 A3008 RMK AO2 SLP192 T02200199 10258 20219 52010 $
RODN 251116Z AUTO 07004KT 10SM BKN012 22/20 A3008 RMK AO2 BKN V SCT SLP192 $
RODN 251056Z AUTO 10006KT 10SM SCT012 22/20 A3008 RMK AO2 SLP192 T02220199 $
RODN 250956Z AUTO 10009KT 10SM SCT070 22/20 A3006 RMK AO2 SLP185 T02230198 $
RODN 250856Z AUTO 10013KT 10SM CLR 23/20 A3005 RMK AO2 SLP182 T02260195 55002 $
RODN 250756Z AUTO 11008KT 10SM CLR 24/20 A3004 RMK AO2 SLP179 T02380197 $
RODN 250656Z AUTO 09011KT 10SM CLR 25/20 A3004 RMK AO2 SLP179 T02500202 $
RODN 250556Z AUTO 12010KT 10SM CLR 26/19 A3006 RMK AO2 SLP185 T02580194 10263 20228 57017 $
RODN 250456Z AUTO 11012KT 10SM CLR 26/20 A3007 RMK AO2 SLP189 T02600196 $
RODN 250356Z AUTO 12012KT 10SM CLR 26/20 A3008 RMK AO2 SLP192 T02630201 $
RODN 250256Z AUTO 10013KT 10SM CLR 26/20 A3011 RMK AO2 SLP202 T02590197 58008 $
RODN 250156Z AUTO 10012KT 10SM SCT070 25/20 A3012 RMK AO2 SLP206 T02520204 $
RODN 250056Z AUTO 10010KT 10SM FEW012 OVC075 24/20 A3014 RMK AO2 SLP213 T02360203 $
RODN 250036Z AUTO 08008KT 10SM SCT012 BKN075 23/20 A3014 RMK AO2 SLP213 $
RODN 250026Z AUTO 09008KT 10SM BKN011 OVC075 23/21 A3014 RMK AO2 SLP213 $
RODN 250016Z AUTO 07008KT 10SM BKN009 OVC070 23/21 A3014 RMK AO2 CIG 009V075 BKN V SCT SLP213 $
RODN 242356Z AUTO 07006KT 10SM OVC070 23/21 A3013 RMK AO2 SLP209 T02270208 10227 20188 52009 $
RODN 242256Z AUTO 09010KT 10SM BKN070 21/20 A3011 RMK AO2 SLP203 T02140204 $
RODN 242156Z AUTO 08008KT 10SM OVC070 21/20 A3011 RMK AO2 SLP203 T02130199 $
RODN 242056Z AUTO 08008KT 10SM OVC070 21/20 A3010 RMK AO2 SLP199 T02120200 57010 $
RODN 241956Z AUTO 06005KT 8SM OVC070 21/20 A3011 RMK AO2 SLP202 T02090200 $
RODN 241856Z AUTO 04005KT 5SM BR OVC070 19/19 A3012 RMK AO2 SLP206 T01920187 $
RODN 241756Z AUTO 04004KT 9SM OVC070 20/19 A3013 RMK AO2 DZB22E51 SLP209 P0000 60000 T01970192 10200 20162 57014 $
RODN 241722Z AUTO 07005KT 9SM -DZ BKN070 17/16 A3014 RMK AO2 DZB22 SLP213 $
RODN 241656Z AUTO 05003KT 9SM CLR 16/16 A3015 RMK AO2 SLP216 T01640157 $
RODN 241556Z AUTO 00000KT 7SM FEW065 17/16 A3016 RMK AO2 SLP220 T01690159 $
RODN 241456Z AUTO 00000KT 10SM SCT070 18/17 A3017 RMK AO2 SLP223 T01780168 402490138 50002 $
RODN 241356Z AUTO 00000KT 9SM SCT070 18/17 A3017 RMK AO2 SLP223 T01820167 $
RODN 241256Z AUTO 00000KT 10SM SCT065 19/18 A3018 RMK AO2 SLP226 T01940179 $
RODN 241156Z AUTO 00000KT 10SM CLR 19/18 A3017 RMK AO2 SLP223 60000 T01940177 10246 20191 52015 $
RODN 241056Z AUTO 02003KT 10SM SCT060 21/18 A3015 RMK AO2 SLP217 T02100182 $
RODN 241046Z AUTO 36003KT 10SM FEW016 SCT024 BKN060 21/18 A3015 RMK AO2 SLP217 $
RODN 241036Z AUTO 36005KT 10SM SCT016 BKN024 OVC060 21/18 A3015 RMK AO2 CIG 016V024 BKN V OVC SLP217 $
RODN 241016Z AUTO 34003KT 10SM BKN017 OVC022 22/19 A3015 RMK AO2 SLP217 $
RODN 240956Z AUTO 35004KT 10SM BKN022 22/19 A3015 RMK AO2 DZB17E18 SLP217 P0000 T02170187 $
RODN 240918Z AUTO 02003KT 10SM SCT026 SCT030 22/19 A3012 RMK AO2 DZB17E18 SLP207 $
RODN 240916Z AUTO 02004KT 10SM SCT024 SCT030 22/19 A3012 RMK AO2 SLP207 $
RODN 240856Z AUTO 02004KT 10SM BKN023 OVC032 23/19 A3012 RMK AO2 SLP206 T02250189 53003 $
RODN 240756Z AUTO 12005KT 10SM OVC020 24/19 A3011 RMK AO2 SLP203 T02380189 $
RODN 240716Z AUTO 18004KT 10SM BKN021 24/19 A3011 RMK AO2 SLP203 $